createdAt,value
2023-05-16T00:00:03.074Z,1011.0
2023-05-16T00:15:02.359Z,1010.9
2023-05-16T00:30:03.058Z,1011.1
2023-05-16T00:45:02.276Z,1011.3
2023-05-16T01:00:02.697Z,1011.3
2023-05-16T01:15:03.142Z,1011.4
2023-05-16T01:30:02.557Z,1011.5
2023-05-16T01:45:03.091Z,1011.5
2023-05-16T02:00:02.452Z,1011.7
2023-05-16T02:15:03.086Z,1011.8
2023-05-16T02:30:02.387Z,1011.9
2023-05-16T02:45:02.729Z,1012.0
2023-05-16T03:00:03.193Z,1012.0
2023-05-16T03:15:02.612Z,1012.2
2023-05-16T03:30:03.129Z,1012.3
2023-05-16T03:45:02.478Z,1012.4
2023-05-16T04:00:03.096Z,1012.6
2023-05-16T04:15:02.380Z,1012.7
2023-05-16T04:30:02.845Z,1012.9
2023-05-16T04:45:02.252Z,1013.1
2023-05-16T05:00:02.683Z,1013.3
2023-05-16T05:15:03.138Z,1013.3
2023-05-16T05:30:02.548Z,1013.5
2023-05-16T05:45:03.143Z,1013.6
2023-05-16T06:00:02.412Z,1013.9
2023-05-16T06:15:02.868Z,1014.0
2023-05-16T06:30:02.320Z,1014.1
2023-05-16T06:45:02.774Z,1014.1
2023-05-16T07:00:03.221Z,1014.2
2023-05-16T07:15:02.675Z,1014.2
2023-05-16T07:30:03.159Z,1014.1
2023-05-16T07:45:02.515Z,1014.3
2023-05-16T08:00:03.154Z,1014.3
2023-05-16T08:15:02.398Z,1014.4
2023-05-16T08:30:02.844Z,1014.5
2023-05-16T08:45:02.297Z,1014.5
2023-05-16T09:00:02.687Z,1014.3
2023-05-16T09:15:03.173Z,1014.3
2023-05-16T09:30:02.606Z,1014.4
2023-05-16T09:45:03.195Z,1014.4
2023-05-16T10:00:02.469Z,1014.2
2023-05-16T10:15:02.895Z,1014.2
2023-05-16T10:30:02.331Z,1014.2
2023-05-16T10:45:05.834Z,1014.2
2023-05-16T11:00:02.406Z,1014.1
2023-05-16T11:15:02.645Z,1014.2
2023-05-16T11:30:04.264Z,1014.2
2023-05-16T11:45:02.534Z,1014.3
2023-05-16T12:00:03.104Z,1014.5
2023-05-16T12:15:02.414Z,1014.8
2023-05-16T12:30:02.867Z,1014.5
2023-05-16T12:45:02.302Z,1014.6
2023-05-16T13:00:02.721Z,1014.7
2023-05-16T13:15:03.226Z,1014.7
2023-05-16T13:30:02.599Z,1014.6
2023-05-16T13:45:03.221Z,1014.9
2023-05-16T14:15:02.937Z,1014.8
2023-05-16T14:30:02.393Z,1015.0
2023-05-16T14:45:02.796Z,1015.0
2023-05-16T15:00:03.306Z,1014.9
2023-05-16T15:15:02.661Z,1015.1
2023-05-16T15:30:03.294Z,1015.2
2023-05-16T15:45:02.544Z,1015.2
2023-05-16T16:00:03.183Z,1015.4
2023-05-16T16:15:02.508Z,1015.6
2023-05-16T16:30:02.869Z,1015.8
2023-05-16T16:45:02.330Z,1015.7
2023-05-16T17:00:02.753Z,1015.9
2023-05-16T17:15:03.280Z,1016.1
2023-05-16T17:30:02.606Z,1016.2
2023-05-16T17:45:03.252Z,1016.4
2023-05-16T18:00:02.496Z,1016.4
2023-05-16T18:15:02.974Z,1016.5
2023-05-16T18:30:02.624Z,1016.8
2023-05-16T18:45:02.828Z,1016.8
2023-05-16T19:00:03.271Z,1016.9
2023-05-16T19:15:02.684Z,1017.0
2023-05-16T19:30:03.277Z,1017.2
2023-05-16T19:45:02.559Z,1017.2
2023-05-16T20:00:03.024Z,1017.2
2023-05-16T20:15:02.484Z,1017.4
2023-05-16T20:30:02.894Z,1017.3
2023-05-16T20:45:02.371Z,1017.3
2023-05-16T21:00:02.773Z,1017.3
2023-05-16T21:15:03.282Z,1017.3
2023-05-16T21:30:02.682Z,1017.4
2023-05-16T21:45:03.305Z,1017.4
2023-05-16T22:00:02.527Z,1017.4
2023-05-16T22:30:02.411Z,1017.4
2023-05-16T22:45:02.854Z,1017.5
2023-05-16T23:00:02.318Z,1017.4
2023-05-16T23:15:02.737Z,1017.5
2023-05-16T23:30:03.329Z,1017.6
2023-05-16T23:45:02.605Z,1017.5
